KE9LZ Weather Reports


time (UTC)temp
F
wind
direction
speed
knots
gust
knots
rain 1hr
in
rain 24hr
in
rain mn
in
humidity
%
barometer
mb
20240723043003 72 295 4.3 7.0 0.00 0.00 0.00 67 1014.7
20240723042003 72 143 1.7 2.6 0.00 0.00 0.00 67 1014.2
20240723041004 72 353 2.6 2.6 0.00 0.00 0.00 66 1014.1
20240723040003 72 325 0.9 1.7 0.00 0.00 0.00 66 1014.3
20240723035003 73 86 0.9 2.6 0.00 0.00 0.00 65 1014.2
20240723034002 73 134 1.7 5.2 0.00 0.00 0.00 64 1014.1
20240723032003 73 140 1.7 6.1 0.00 0.00 0.00 63 1014.3
20240723031003 73 151 1.7 4.3 0.00 0.00 0.00 64 1014.3
20240723030003 73 154 1.7 4.3 0.00 0.00 0.00 63 1014.3
20240723025002 73 149 1.7 4.3 0.00 0.00 0.00 63 1014.3
20240723024003 74 137 1.7 4.3 0.00 0.00 0.00 63 1014.5
20240723023003 74 144 1.7 8.7 0.00 0.00 0.00 62 1014.3
20240723022003 74 118 2.6 8.7 0.00 0.00 0.00 62 1014.4
20240723020003 74 159 1.7 5.2 0.00 0.00 0.00 63 1014.3
20240723015003 74 163 2.6 5.2 0.00 0.00 0.00 62 1014.0
20240723014003 74 143 1.7 5.2 0.00 0.00 0.00 61 1014.0
20240723013003 74 119 1.7 5.2 0.00 0.00 0.00 61 1014.1
20240723012002 75 133 1.7 6.1 0.00 0.00 0.00 60 1014.2
20240723011003 75 139 1.7 4.3 0.00 0.00 0.00 59 1013.8
20240723010003 76 132 1.7 4.3 0.00 0.00 0.00 58 1014.3
20240723005003 76 126 1.7 2.6 0.00 0.00 0.00 57 1014.2
20240723004003 76 130 2.6 5.2 0.00 0.00 0.00 56 1014.1
20240723003003 77 118 0.9 5.2 0.00 0.00 0.00 56 1014.4
20240723002003 77 149 2.6 5.2 0.00 0.00 0.00 55 1014.0
20240723001003 78 141 2.6 7.0 0.00 0.00 0.00 53 1014.3
20240723000003 79 161 5.2 10.4 0.00 0.00 0.00 52 1014.0
20240722235003 80 133 2.6 7.8 0.00 0.00 0.00 52 1014.0
20240722234003 81 170 1.7 7.0 0.00 0.00 0.00 51 1013.8
20240722233003 81 185 2.6 10.4 0.00 0.00 0.00 50 1014.0
20240722232003 82 208 4.3 7.8 0.00 0.00 0.00 48 1014.0
20240722231003 82 183 2.6 10.4 0.00 0.00 0.00 49 1013.8
20240722230004 83 205 5.2 10.4 0.00 0.00 0.00 47 1014.1
20240722225004 83 207 4.3 8.7 0.00 0.00 0.00 47 1013.8
20240722224003 82 190 2.6 8.7 0.00 0.00 0.00 48 1013.9
20240722222003 82 227 5.2 10.4 0.00 0.00 0.00 46 1013.8
20240722221003 83 235 4.3 8.7 0.00 0.00 0.00 46 1014.2
20240722215003 83 162 0.9 6.1 0.00 0.00 0.00 46 1013.8
20240722213003 84 146 2.6 7.8 0.00 0.00 0.00 45 1014.1
20240722212003 83 220 4.3 8.7 0.00 0.00 0.00 46 1014.1
20240722211003 83 185 2.6 8.7 0.00 0.00 0.00 44 1014.4
20240722205003 83 127 2.6 5.2 0.00 0.00 0.00 45 1014.6
20240722204003 82 201 0.9 8.7 0.00 0.00 0.00 46 1014.9
20240722202003 84 235 2.6 11.3 0.00 0.00 0.00 44 1014.9
20240722201004 84 153 2.6 5.2 0.00 0.00 0.00 41 1015.1
20240722200004 85 282 3.5 8.7 0.00 0.00 0.00 40 1015.2
20240722195003 84 260 2.6 7.8 0.00 0.00 0.00 42 1015.4
20240722193003 83 190 3.5 7.8 0.00 0.00 0.00 43 1015.7
20240722192003 83 291 3.5 10.4 0.00 0.00 0.00 43 1015.6
20240722191003 82 194 5.2 8.7 0.00 0.00 0.00 44 1015.8
20240722185003 82 251 3.5 8.7 0.00 0.00 0.00 44 1015.9
20240722184003 81 303 3.5 8.7 0.00 0.00 0.00 45 1016.1
20240722183003 83 195 4.3 7.8 0.00 0.00 0.00 43 1016.3
20240722181003 81 229 4.3 8.7 0.00 0.00 0.00 43 1016.2
20240722180003 81 239 1.7 6.1 0.00 0.00 0.00 42 1016.2
20240722175003 82 188 2.6 5.2 0.00 0.00 0.00 43 1016.6
20240722174004 80 42 1.7 6.1 0.00 0.00 0.00 44 1016.9
20240722173003 81 272 2.6 7.8 0.00 0.00 0.00 43 1016.6
20240722172003 80 219 1.7 6.1 0.00 0.00 0.00 46 1017.0
20240722171003 80 211 4.3 8.7 0.00 0.00 0.00 46 1016.7
20240722170003 79 154 0.9 7.0 0.00 0.00 0.00 47 1017.0
20240722165002 80 63 0.9 6.1 0.00 0.00 0.00 49 1017.3
20240722164004 79 341 2.6 10.4 0.00 0.00 0.00 47 1017.2
20240722163003 78 220 2.6 7.0 0.00 0.00 0.00 48 1017.3
20240722161004 80 178 1.7 5.2 0.00 0.00 0.00 48 1017.3
20240722160004 78 204 1.7 4.3 0.00 0.00 0.00 47 1017.4
20240722155003 78 281 2.6 7.0 0.00 0.00 0.00 47 1017.5
20240722154004 78 302 2.6 2.6 0.00 0.00 0.00 48 1017.6
20240722153004 77 171 1.7 5.2 0.00 0.00 0.00 48 1017.5
20240722152003 76 186 1.7 4.3 0.00 0.00 0.00 50 1017.6
20240722151004 75 18 0.9 4.3 0.00 0.00 0.00 51 1017.5
20240722150003 75 197 1.7 5.2 0.00 0.00 0.00 52 1017.9
20240722145003 74 93 0.9 5.2 0.00 0.00 0.00 53 1017.7
20240722144003 74 330 1.7 4.3 0.00 0.00 0.00 54 1018.1
20240722142003 73 277 0.9 5.2 0.00 0.00 0.00 57 1018.0
20240722141003 73 238 1.7 2.6 0.00 0.00 0.00 57 1017.9
20240722140004 72 246 0.9 2.6 0.00 0.00 0.00 59 1018.1
20240722135003 69 311 1.7 4.3 0.00 0.00 0.00 66 1018.3
20240722134003 69 286 1.7 4.3 0.00 0.00 0.00 69 1017.9
20240722133003 68 69 0.0 4.3 0.00 0.00 0.00 72 1018.3
20240722132004 67 188 1.7 2.6 0.00 0.00 0.00 77 1018.2
20240722131003 67 189 0.9 2.6 0.00 0.00 0.00 78 1018.2
20240722125003 65 166 0.9 2.6 0.00 0.00 0.00 85 1018.3
20240722123004 63 133 0.9 1.7 0.00 0.00 0.00 86 1018.3
20240722122004 61 138 0.9 1.7 0.00 0.00 0.00 87 1018.2
20240722121003 60 114 0.9 1.7 0.00 0.00 0.00 90 1018.1
20240722114003 56 45 0.9 0.9 0.00 0.00 0.00 96 1018.3
20240722113003 55 99 0.9 1.7 0.00 0.00 0.00 95 1018.3
20240722112003 55 104 0.9 1.7 0.00 0.00 0.00 96 1018.3
20240722111004 54 94 0.9 1.7 0.00 0.00 0.00 96 1018.4
20240722110003 54 93 0.9 1.7 0.00 0.00 0.00 95 1018.4
20240722105003 54 99 1.7 1.7 0.00 0.00 0.00 95 1018.3
20240722104003 54 111 0.9 1.7 0.00 0.00 0.00 95 1018.3
20240722103003 54 106 0.9 1.7 0.00 0.00 0.00 95 1018.2
20240722102003 54 101 1.7 1.7 0.00 0.00 0.00 95 1018.4
20240722101003 54 105 0.9 1.7 0.00 0.00 0.00 96 1018.2
20240722100003 54 103 0.9 1.7 0.00 0.00 0.00 96 1018.2
20240722094003 55 104 1.7 1.7 0.00 0.00 0.00 97 1018.2
20240722092003 55 100 0.9 1.7 0.00 0.00 0.00 97 1018.3
20240722091004 55 99 0.9 1.7 0.00 0.00 0.00 96 1018.2
20240722090003 55 85 0.9 1.7 0.00 0.00 0.00 96 1018.4
20240722084004 55 109 0.0 0.9 0.00 0.00 0.00 96 1018.3
20240722083003 55 77 0.0 0.9 0.00 0.00 0.00 96 1018.5
20240722082003 56 316 0.0 1.7 0.00 0.00 0.00 95 1018.4
20240722081003 55 110 0.9 1.7 0.00 0.00 0.00 95 1018.3
20240722080003 56 104 1.7 1.7 0.00 0.00 0.00 94 1018.2
20240722075004 56 119 0.9 1.7 0.00 0.00 0.00 94 1018.3
20240722074003 57 83 0.9 2.6 0.00 0.00 0.00 93 1018.4
20240722073003 57 134 2.6 2.6 0.00 0.00 0.00 93 1018.6
20240722072004 57 103 1.7 1.7 0.00 0.00 0.00 92 1018.6
20240722071003 57 108 1.7 1.7 0.00 0.00 0.00 92 1018.6
20240722070004 58 81 0.9 1.7 0.00 0.00 0.00 91 1018.5
20240722064003 58 93 0.9 1.7 0.00 0.00 0.00 91 1019.1
20240722062003 58 109 0.9 1.7 0.00 0.00 0.00 91 1019.0
20240722060003 59 89 0.9 2.6 0.00 0.00 0.00 87 1019.0
20240722055003 60 98 1.7 2.6 0.00 0.00 0.00 86 1019.0
20240722054003 60 103 1.7 1.7 0.00 0.00 0.00 85 1018.9
20240722053004 60 93 0.9 1.7 0.00 0.00 0.00 83 1019.0
20240722052003 61 100 0.9 1.7 0.00 0.00 0.00 82 1019.3
20240722051004 61 99 1.7 1.7 0.00 0.00 0.00 80 1019.2
20240722050003 61 101 0.9 1.7 0.00 0.00 0.00 81 1019.5
20240722045003 61 78 0.0 0.9 0.00 0.00 0.00 81 1019.4